createdAt,value
2023-03-10T00:00:51.120Z,5.49
2023-03-10T00:05:54.842Z,5.51
2023-03-10T00:10:58.662Z,5.51
2023-03-10T00:16:03.880Z,5.56
2023-03-10T00:21:07.609Z,5.59
2023-03-10T00:26:13.596Z,5.58
2023-03-10T00:31:21.473Z,5.60
2023-03-10T00:36:27.458Z,5.62
2023-03-10T00:41:35.560Z,5.64
2023-03-10T00:46:40.908Z,5.66
2023-03-10T00:51:46.145Z,5.69
2023-03-10T00:56:50.410Z,5.71
2023-03-10T01:01:55.577Z,5.74
2023-03-10T01:06:59.411Z,5.79
2023-03-10T01:12:03.252Z,5.82
2023-03-10T01:17:08.311Z,5.87
2023-03-10T01:22:12.019Z,6.01
2023-03-10T01:27:15.865Z,6.42
2023-03-10T01:32:20.970Z,6.48
2023-03-10T01:37:25.530Z,6.65
2023-03-10T01:42:29.259Z,6.62
2023-03-10T01:47:34.377Z,6.75
2023-03-10T01:52:41.994Z,6.88
2023-03-10T01:57:50.323Z,7.11
2023-03-10T02:02:58.061Z,7.01
2023-03-10T02:08:02.261Z,7.07
2023-03-10T02:13:06.161Z,7.22
2023-03-10T02:18:14.137Z,7.23
2023-03-10T02:23:28.361Z,7.18
2023-03-10T02:28:33.496Z,7.23
2023-03-10T02:33:38.601Z,7.32
2023-03-10T02:38:42.583Z,7.27
2023-03-10T02:43:49.752Z,7.23
2023-03-10T02:48:55.371Z,7.32
2023-03-10T02:54:00.390Z,7.26
2023-03-10T02:59:06.943Z,7.21
2023-03-10T03:04:11.211Z,7.13
2023-03-10T03:09:14.995Z,7.15
2023-03-10T03:14:20.133Z,7.11
2023-03-10T03:19:24.933Z,7.15
2023-03-10T03:24:32.071Z,7.17
2023-03-10T03:29:37.460Z,7.23
2023-03-10T03:34:42.019Z,7.25
2023-03-10T03:39:46.181Z,7.29
2023-03-10T03:44:51.536Z,7.42
2023-03-10T03:49:56.469Z,7.37
2023-03-10T03:55:00.418Z,7.39
2023-03-10T04:00:08.556Z,7.45
2023-03-10T04:05:16.134Z,7.45
2023-03-10T04:10:21.434Z,7.49
2023-03-10T04:15:26.889Z,7.53
2023-03-10T04:20:30.933Z,7.52
2023-03-10T04:25:36.320Z,7.57
2023-03-10T04:30:47.745Z,7.59
2023-03-10T04:35:53.547Z,7.58
2023-03-10T04:40:58.895Z,7.56
2023-03-10T04:46:05.118Z,7.60
2023-03-10T04:51:11.235Z,7.60
2023-03-10T04:56:15.928Z,7.66
2023-03-10T05:01:21.183Z,7.71
2023-03-10T05:06:25.390Z,7.72
2023-03-10T05:11:30.236Z,7.76
2023-03-10T05:16:35.568Z,7.75
2023-03-10T05:21:39.432Z,7.77
2023-03-10T05:26:43.332Z,7.80
2023-03-10T05:31:48.594Z,7.79
2023-03-10T05:36:53.674Z,7.81
2023-03-10T05:41:57.712Z,7.84
2023-03-10T05:47:03.209Z,7.80
2023-03-10T05:52:07.614Z,7.82
2023-03-10T05:57:13.992Z,7.82
2023-03-10T06:02:19.541Z,7.82
2023-03-10T06:07:23.271Z,7.82
2023-03-10T06:12:27.031Z,7.82
2023-03-10T06:17:32.070Z,7.80
2023-03-10T06:22:35.799Z,7.79
2023-03-10T06:27:39.518Z,7.76
2023-03-10T06:32:44.643Z,7.77
2023-03-10T06:37:48.364Z,7.75
2023-03-10T06:42:52.100Z,7.71
2023-03-10T06:47:57.208Z,7.68
2023-03-10T06:53:01.510Z,7.68
2023-03-10T06:58:05.224Z,7.69
2023-03-10T07:03:11.524Z,7.73
2023-03-10T07:08:15.243Z,7.76
2023-03-10T07:13:19.093Z,7.80
2023-03-10T07:18:27.740Z,7.85
2023-03-10T07:23:31.470Z,7.86
2023-03-10T07:28:36.376Z,7.89
2023-03-10T07:33:41.531Z,7.94
2023-03-10T07:38:45.740Z,8.01
2023-03-10T07:43:53.624Z,8.02
2023-03-10T07:49:00.399Z,8.06
2023-03-10T07:54:04.228Z,8.17
2023-03-10T07:59:07.886Z,8.30
2023-03-10T08:04:14.325Z,8.40
2023-03-10T08:09:18.131Z,8.44
2023-03-10T08:14:24.079Z,8.49
2023-03-10T08:19:29.557Z,8.49
2023-03-10T08:24:33.372Z,8.60
2023-03-10T08:29:37.813Z,8.71
2023-03-10T08:34:43.651Z,8.80
2023-03-10T08:39:47.502Z,8.85
2023-03-10T08:44:51.288Z,8.82
2023-03-10T08:49:56.477Z,8.76
2023-03-10T08:55:00.236Z,8.77
2023-03-10T09:00:06.436Z,8.76
2023-03-10T09:05:11.839Z,8.76
2023-03-10T09:10:15.551Z,8.82
2023-03-10T09:15:20.022Z,8.85
2023-03-10T09:20:28.274Z,8.82
2023-03-10T09:25:33.224Z,8.97
2023-03-10T09:30:38.557Z,9.01
2023-03-10T09:35:52.500Z,9.17
2023-03-10T09:41:08.055Z,9.28
2023-03-10T09:46:21.731Z,9.34
2023-03-10T09:51:29.544Z,9.29
2023-03-10T09:56:35.424Z,9.22
2023-03-10T10:01:44.262Z,9.12
2023-03-10T10:06:50.980Z,8.98
2023-03-10T10:11:56.280Z,8.89
2023-03-10T10:17:15.044Z,8.81
2023-03-10T10:22:25.571Z,8.74
2023-03-10T10:27:32.440Z,8.82
2023-03-10T10:32:56.950Z,8.86
2023-03-10T10:38:04.487Z,8.92
2023-03-10T10:43:17.629Z,8.94
2023-03-10T10:48:38.834Z,8.91
2023-03-10T10:53:44.581Z,8.96
2023-03-10T10:59:03.125Z,8.95
2023-03-10T11:04:09.001Z,8.97
2023-03-10T11:09:23.108Z,8.98
2023-03-10T11:14:49.782Z,8.91
2023-03-10T11:20:01.812Z,8.97
2023-03-10T11:25:19.021Z,8.94
2023-03-10T11:30:31.664Z,9.01
2023-03-10T11:35:43.788Z,8.98
2023-03-10T11:40:56.357Z,9.02
2023-03-10T11:46:04.833Z,9.07
2023-03-10T11:51:15.737Z,9.09
2023-03-10T11:56:24.416Z,9.10
2023-03-10T12:01:32.235Z,9.24
2023-03-10T12:06:42.944Z,9.20
2023-03-10T12:11:49.284Z,9.31
2023-03-10T12:16:55.401Z,9.23
2023-03-10T12:22:37.859Z,9.37
2023-03-10T12:28:14.821Z,9.37
2023-03-10T12:38:54.550Z,9.69
2023-03-10T12:43:59.664Z,9.69
2023-03-10T12:49:16.032Z,8.99
2023-03-10T12:54:37.596Z,8.53
2023-03-10T12:59:45.484Z,8.41
2023-03-10T13:04:49.414Z,8.38
2023-03-10T13:09:55.572Z,8.04
2023-03-10T13:15:01.088Z,8.02
2023-03-10T13:20:09.200Z,7.86
2023-03-10T13:25:16.193Z,7.64
2023-03-10T13:30:22.962Z,7.45
2023-03-10T13:35:32.065Z,7.11
2023-03-10T13:40:38.672Z,7.01
2023-03-10T13:45:43.639Z,6.89
2023-03-10T13:50:47.654Z,6.77
2023-03-10T13:55:52.691Z,6.57
2023-03-10T14:00:57.479Z,6.24
2023-03-10T14:06:01.240Z,5.92
2023-03-10T14:11:33.959Z,5.51
2023-03-10T14:16:55.156Z,5.07
2023-03-10T14:22:02.235Z,4.85
2023-03-10T14:27:11.730Z,4.59
2023-03-10T14:32:15.723Z,4.56
2023-03-10T14:37:19.880Z,4.22
2023-03-10T14:42:30.203Z,3.97
2023-03-10T14:47:34.586Z,3.93
2023-03-10T14:52:38.381Z,3.68
2023-03-10T14:57:46.239Z,3.41
2023-03-10T15:02:50.090Z,3.33
2023-03-10T15:07:53.817Z,3.18
2023-03-10T15:12:58.853Z,2.98
2023-03-10T15:18:02.601Z,2.85
2023-03-10T15:23:06.532Z,2.64
2023-03-10T15:28:12.304Z,2.60
2023-03-10T15:33:16.589Z,2.52
2023-03-10T15:38:20.302Z,2.49
2023-03-10T15:43:25.539Z,2.48
2023-03-10T15:48:29.570Z,2.45
2023-03-10T15:53:33.585Z,2.29
2023-03-10T15:58:38.929Z,2.29
2023-03-10T16:03:43.043Z,2.09
2023-03-10T16:08:48.082Z,1.99
2023-03-10T16:13:53.159Z,2.08
2023-03-10T16:18:56.884Z,2.02
2023-03-10T16:24:00.637Z,2.11
2023-03-10T16:29:05.701Z,2.09
2023-03-10T16:34:09.546Z,2.26
2023-03-10T16:39:15.659Z,2.25
2023-03-10T16:44:22.463Z,2.29
2023-03-10T16:49:26.329Z,2.33
2023-03-10T16:54:30.030Z,2.23
2023-03-10T16:59:35.182Z,2.26
2023-03-10T17:04:38.921Z,2.19
2023-03-10T17:09:42.624Z,2.18
2023-03-10T17:14:47.655Z,2.16
2023-03-10T17:19:51.812Z,2.08
2023-03-10T17:24:56.580Z,2.05
2023-03-10T17:30:02.086Z,2.10
2023-03-10T17:35:06.714Z,2.18
2023-03-10T17:40:15.185Z,2.12
2023-03-10T17:45:20.273Z,2.13
2023-03-10T17:50:25.460Z,2.19
2023-03-10T17:55:29.144Z,2.19
2023-03-10T18:00:34.392Z,2.24
2023-03-10T18:05:40.460Z,1.93
2023-03-10T18:10:44.221Z,1.93
2023-03-10T18:15:52.123Z,2.00
2023-03-10T18:20:55.893Z,2.04
2023-03-10T18:25:59.902Z,2.03
2023-03-10T18:31:07.783Z,1.89
2023-03-10T18:36:13.637Z,1.91
2023-03-10T18:41:20.296Z,1.88
2023-03-10T18:46:25.468Z,1.79
2023-03-10T18:51:30.258Z,1.78
2023-03-10T18:56:33.987Z,1.70
2023-03-10T19:01:39.214Z,1.76
2023-03-10T19:06:43.151Z,1.80
2023-03-10T19:11:48.260Z,1.79
2023-03-10T19:16:53.391Z,1.75
2023-03-10T19:21:57.133Z,1.76
2023-03-10T19:27:04.025Z,1.63
2023-03-10T19:32:09.302Z,1.75
2023-03-10T19:37:13.081Z,1.61
2023-03-10T19:42:17.078Z,1.73
2023-03-10T19:47:22.394Z,1.67
2023-03-10T19:52:26.819Z,1.70
2023-03-10T19:57:30.638Z,1.75
2023-03-10T20:02:35.724Z,1.76
2023-03-10T20:07:39.908Z,1.78
2023-03-10T20:12:43.883Z,1.82
2023-03-10T20:17:49.630Z,1.82
2023-03-10T20:22:53.336Z,1.81
2023-03-10T20:27:57.085Z,1.83
2023-03-10T20:33:02.587Z,1.87
2023-03-10T20:38:06.535Z,1.84
2023-03-10T20:43:12.022Z,1.92
2023-03-10T20:48:17.074Z,1.90
2023-03-10T20:53:20.801Z,1.90
2023-03-10T20:58:24.525Z,1.80
2023-03-10T21:03:29.740Z,1.87
2023-03-10T21:08:33.425Z,1.81
2023-03-10T21:13:37.202Z,1.80
2023-03-10T21:18:42.297Z,1.87
2023-03-10T21:23:46.211Z,1.86
2023-03-10T21:28:50.533Z,1.90
2023-03-10T21:33:55.673Z,1.84
2023-03-10T21:38:59.476Z,1.89
2023-03-10T21:44:03.357Z,1.90
2023-03-10T21:49:08.992Z,1.83
2023-03-10T21:54:12.816Z,1.73
2023-03-10T21:59:17.358Z,1.71
2023-03-10T22:04:22.633Z,1.69
2023-03-10T22:09:26.408Z,1.63
2023-03-10T22:14:30.171Z,1.67
2023-03-10T22:19:35.353Z,1.66
2023-03-10T22:24:40.228Z,1.63
2023-03-10T22:29:44.035Z,1.50
2023-03-10T22:34:49.092Z,1.58
2023-03-10T22:39:52.842Z,1.44
2023-03-10T22:44:56.512Z,1.32
2023-03-10T22:50:01.683Z,1.22
2023-03-10T22:55:05.945Z,1.20
2023-03-10T23:00:13.529Z,1.11
2023-03-10T23:05:19.070Z,1.02
2023-03-10T23:10:25.349Z,0.95
2023-03-10T23:15:33.325Z,0.96
2023-03-10T23:20:39.663Z,0.91
2023-03-10T23:25:47.073Z,0.77
2023-03-10T23:30:54.134Z,0.75
2023-03-10T23:35:59.276Z,0.71
2023-03-10T23:41:03.022Z,0.66
2023-03-10T23:46:08.805Z,0.64
2023-03-10T23:51:16.105Z,0.63
2023-03-10T23:56:19.824Z,0.57
